This is the latest recevied weather packets stored in our database for station/object KY4EF. If no packets are shown the sender has not sent any weather packets the latest 10 day(s).
| Time | Temp. | Humidity | Pressure | Rain* | Wind** | Luminosity | Snow |
|---|---|---|---|---|---|---|---|
| 1777815021 | 11.11° C | 69% | 1019.2 hPa | 0 mm | - | 357 W/m² | - |
| 1777814717 | 10° C | 75% | 1019.1 hPa | 0 mm | - | 360 W/m² | - |
| 1777814414 | 8.89° C | 76% | 1019.1 hPa | 0 mm | - | 345 W/m² | - |
| 1777814111 | 8.89° C | 79% | 1018.9 hPa | 0 mm | - | 307 W/m² | - |
| 1777813808 | 8.33° C | 79% | 1019.1 hPa | 0 mm | - | 266 W/m² | - |
| 1777813505 | 7.22° C | 84% | 1019.2 hPa | 0 mm | - | 235 W/m² | - |
| 1777813203 | 7.22° C | 87% | 1019.2 hPa | 0 mm | - | 203 W/m² | - |
| 1777812900 | 6.11° C | 89% | 1019.2 hPa | 0 mm | - | 179 W/m² | - |
| 1777812596 | 5° C | 99% | 1019 hPa | 0 mm | - | 40 W/m² | - |
| 1777812294 | 3.33° C | 99% | 1019 hPa | 0 mm | - | 39 W/m² | - |
| 1777811992 | 2.78° C | 99% | 1019.2 hPa | 0 mm | - | 38 W/m² | - |
| 1777811691 | 2.78° C | 99% | 1019.2 hPa | 0 mm | - | 37 W/m² | - |
| 1777811386 | 2.78° C | 99% | 1019.2 hPa | 0 mm | - | 36 W/m² | - |
| 1777811083 | 2.22° C | 99% | 1019.2 hPa | 0 mm | - | 35 W/m² | - |
| 1777810780 | 2.22° C | 99% | 1019.1 hPa | 0 mm | - | 34 W/m² | - |
| 1777810477 | 1.67° C | 99% | 1019.1 hPa | 0 mm | - | 32 W/m² | - |
| 1777810173 | 1.67° C | 99% | 1019.1 hPa | 0 mm | - | 32 W/m² | - |
| 1777809870 | 1.67° C | 99% | 1018.8 hPa | 0 mm | - | 30 W/m² | - |
| 1777809568 | 1.67° C | 99% | 1018.8 hPa | 0 mm | - | 29 W/m² | - |
| 1777809266 | 1.67° C | 99% | 1018.6 hPa | 0 mm | - | 27 W/m² | - |
| 1777808963 | 1.11° C | 99% | 1018.5 hPa | 0 mm | - | 26 W/m² | - |
| 1777808660 | 1.11° C | 99% | 1018.5 hPa | 0 mm | - | 24 W/m² | - |
| 1777808356 | 1.11° C | 99% | 1018.5 hPa | 0 mm | - | 23 W/m² | - |
| 1777808056 | 1.11° C | 99% | 1018.6 hPa | 0 mm | - | 21 W/m² | - |
| 1777807752 | 1.11° C | 99% | 1018.3 hPa | 0 mm | - | 20 W/m² | - |
* Rain latest hour (hover to see other rain measurements)
** Current wind speed in m/s (hover to see current wind gust speed)